sensor_id;sensor_type;location;lat;lon;timestamp;P1;durP1;ratioP1;P2;durP2;ratioP2
80233;SDS011;69712;42.142;24.766;2023-12-20T00:01:26;70.45;;;40.42;;
80233;SDS011;69712;42.142;24.766;2023-12-20T00:03:52;72.07;;;40.88;;
80233;SDS011;69712;42.142;24.766;2023-12-20T00:06:17;71.40;;;41.50;;
80233;SDS011;69712;42.142;24.766;2023-12-20T00:08:43;74.90;;;41.45;;
80233;SDS011;69712;42.142;24.766;2023-12-20T00:11:09;75.68;;;42.38;;
80233;SDS011;69712;42.142;24.766;2023-12-20T00:13:35;73.70;;;41.67;;
80233;SDS011;69712;42.142;24.766;2023-12-20T00:16:00;73.22;;;40.70;;
80233;SDS011;69712;42.142;24.766;2023-12-20T00:18:26;73.20;;;41.92;;
80233;SDS011;69712;42.142;24.766;2023-12-20T00:20:52;76.13;;;42.90;;
80233;SDS011;69712;42.142;24.766;2023-12-20T00:23:18;71.63;;;41.28;;
80233;SDS011;69712;42.142;24.766;2023-12-20T00:25:43;74.60;;;42.42;;
80233;SDS011;69712;42.142;24.766;2023-12-20T00:28:09;72.22;;;41.72;;
80233;SDS011;69712;42.142;24.766;2023-12-20T00:30:35;66.18;;;39.47;;
80233;SDS011;69712;42.142;24.766;2023-12-20T00:33:01;72.30;;;41.72;;
80233;SDS011;69712;42.142;24.766;2023-12-20T00:35:27;77.03;;;43.83;;
80233;SDS011;69712;42.142;24.766;2023-12-20T00:37:53;70.15;;;41.22;;
80233;SDS011;69712;42.142;24.766;2023-12-20T00:40:19;73.13;;;41.17;;
80233;SDS011;69712;42.142;24.766;2023-12-20T00:42:45;75.32;;;41.75;;
80233;SDS011;69712;42.142;24.766;2023-12-20T00:45:12;71.60;;;39.47;;
80233;SDS011;69712;42.142;24.766;2023-12-20T00:47:38;72.55;;;40.10;;
80233;SDS011;69712;42.142;24.766;2023-12-20T00:50:04;67.50;;;36.92;;
80233;SDS011;69712;42.142;24.766;2023-12-20T00:52:30;67.93;;;38.38;;
80233;SDS011;69712;42.142;24.766;2023-12-20T00:54:56;65.40;;;37.53;;
80233;SDS011;69712;42.142;24.766;2023-12-20T00:57:21;63.50;;;35.78;;
80233;SDS011;69712;42.142;24.766;2023-12-20T00:59:47;65.90;;;37.85;;
80233;SDS011;69712;42.142;24.766;2023-12-20T01:02:13;66.03;;;36.28;;
80233;SDS011;69712;42.142;24.766;2023-12-20T01:04:39;64.13;;;36.60;;
80233;SDS011;69712;42.142;24.766;2023-12-20T01:07:05;63.65;;;34.85;;
80233;SDS011;69712;42.142;24.766;2023-12-20T01:09:30;60.25;;;34.47;;
80233;SDS011;69712;42.142;24.766;2023-12-20T01:11:56;57.17;;;33.85;;
80233;SDS011;69712;42.142;24.766;2023-12-20T01:14:22;60.13;;;34.00;;
80233;SDS011;69712;42.142;24.766;2023-12-20T01:16:48;59.47;;;35.17;;
80233;SDS011;69712;42.142;24.766;2023-12-20T01:19:13;61.53;;;35.22;;
80233;SDS011;69712;42.142;24.766;2023-12-20T01:21:40;61.65;;;35.90;;
80233;SDS011;69712;42.142;24.766;2023-12-20T01:24:05;63.00;;;36.20;;
80233;SDS011;69712;42.142;24.766;2023-12-20T01:26:31;65.80;;;37.55;;
80233;SDS011;69712;42.142;24.766;2023-12-20T01:28:57;59.47;;;34.13;;
80233;SDS011;69712;42.142;24.766;2023-12-20T01:31:23;59.70;;;35.40;;
80233;SDS011;69712;42.142;24.766;2023-12-20T01:33:49;63.92;;;35.28;;
80233;SDS011;69712;42.142;24.766;2023-12-20T01:36:14;66.18;;;35.40;;
80233;SDS011;69712;42.142;24.766;2023-12-20T01:38:41;63.67;;;34.97;;
80233;SDS011;69712;42.142;24.766;2023-12-20T01:41:06;60.65;;;35.00;;
80233;SDS011;69712;42.142;24.766;2023-12-20T01:43:32;57.22;;;34.00;;
80233;SDS011;69712;42.142;24.766;2023-12-20T01:45:58;59.10;;;34.45;;
80233;SDS011;69712;42.142;24.766;2023-12-20T01:48:24;66.32;;;35.72;;
80233;SDS011;69712;42.142;24.766;2023-12-20T01:50:51;62.63;;;35.05;;
80233;SDS011;69712;42.142;24.766;2023-12-20T01:53:17;57.85;;;33.78;;
80233;SDS011;69712;42.142;24.766;2023-12-20T01:55:45;59.90;;;32.92;;
80233;SDS011;69712;42.142;24.766;2023-12-20T01:58:12;55.00;;;30.50;;
80233;SDS011;69712;42.142;24.766;2023-12-20T02:00:39;53.70;;;30.13;;
80233;SDS011;69712;42.142;24.766;2023-12-20T02:03:05;54.25;;;30.55;;
80233;SDS011;69712;42.142;24.766;2023-12-20T02:05:31;49.50;;;27.50;;
80233;SDS011;69712;42.142;24.766;2023-12-20T02:07:57;51.03;;;30.80;;
80233;SDS011;69712;42.142;24.766;2023-12-20T02:10:23;54.40;;;29.95;;
80233;SDS011;69712;42.142;24.766;2023-12-20T02:12:50;54.45;;;30.00;;
80233;SDS011;69712;42.142;24.766;2023-12-20T02:15:16;49.60;;;28.70;;
80233;SDS011;69712;42.142;24.766;2023-12-20T02:17:42;45.90;;;26.83;;
80233;SDS011;69712;42.142;24.766;2023-12-20T02:20:08;44.97;;;26.65;;
80233;SDS011;69712;42.142;24.766;2023-12-20T02:22:34;42.75;;;25.58;;
80233;SDS011;69712;42.142;24.766;2023-12-20T02:25:00;44.22;;;24.60;;
80233;SDS011;69712;42.142;24.766;2023-12-20T02:27:26;44.55;;;26.10;;
80233;SDS011;69712;42.142;24.766;2023-12-20T02:29:54;40.15;;;23.02;;
80233;SDS011;69712;42.142;24.766;2023-12-20T02:32:20;40.75;;;23.88;;
80233;SDS011;69712;42.142;24.766;2023-12-20T02:34:47;35.35;;;21.98;;
80233;SDS011;69712;42.142;24.766;2023-12-20T02:37:13;37.25;;;21.48;;
80233;SDS011;69712;42.142;24.766;2023-12-20T02:39:39;41.10;;;21.80;;
80233;SDS011;69712;42.142;24.766;2023-12-20T02:42:05;38.92;;;23.02;;
80233;SDS011;69712;42.142;24.766;2023-12-20T02:44:31;37.05;;;21.13;;
80233;SDS011;69712;42.142;24.766;2023-12-20T02:46:57;35.20;;;21.15;;
80233;SDS011;69712;42.142;24.766;2023-12-20T02:49:23;39.25;;;22.77;;
80233;SDS011;69712;42.142;24.766;2023-12-20T02:51:48;35.45;;;20.15;;
80233;SDS011;69712;42.142;24.766;2023-12-20T02:54:14;38.08;;;20.63;;
80233;SDS011;69712;42.142;24.766;2023-12-20T02:56:40;35.22;;;20.70;;
80233;SDS011;69712;42.142;24.766;2023-12-20T02:59:06;38.97;;;21.20;;
80233;SDS011;69712;42.142;24.766;2023-12-20T03:01:33;39.55;;;21.77;;
80233;SDS011;69712;42.142;24.766;2023-12-20T03:04:00;36.55;;;20.65;;
80233;SDS011;69712;42.142;24.766;2023-12-20T03:06:26;37.75;;;22.38;;
80233;SDS011;69712;42.142;24.766;2023-12-20T03:08:52;38.47;;;21.63;;
80233;SDS011;69712;42.142;24.766;2023-12-20T03:11:18;37.55;;;21.75;;
80233;SDS011;69712;42.142;24.766;2023-12-20T03:13:43;37.85;;;22.00;;
80233;SDS011;69712;42.142;24.766;2023-12-20T03:16:12;35.75;;;20.50;;
80233;SDS011;69712;42.142;24.766;2023-12-20T03:18:40;36.72;;;21.77;;
80233;SDS011;69712;42.142;24.766;2023-12-20T03:21:05;33.90;;;20.90;;
80233;SDS011;69712;42.142;24.766;2023-12-20T03:23:31;36.50;;;21.80;;
80233;SDS011;69712;42.142;24.766;2023-12-20T03:26:00;35.45;;;21.15;;
80233;SDS011;69712;42.142;24.766;2023-12-20T03:28:26;39.08;;;21.25;;
80233;SDS011;69712;42.142;24.766;2023-12-20T03:30:52;39.15;;;22.38;;
80233;SDS011;69712;42.142;24.766;2023-12-20T03:33:18;37.55;;;21.92;;
80233;SDS011;69712;42.142;24.766;2023-12-20T03:35:44;39.40;;;22.27;;
80233;SDS011;69712;42.142;24.766;2023-12-20T03:38:10;41.65;;;22.35;;
80233;SDS011;69712;42.142;24.766;2023-12-20T03:40:36;38.60;;;21.42;;
80233;SDS011;69712;42.142;24.766;2023-12-20T03:43:01;40.88;;;22.13;;
80233;SDS011;69712;42.142;24.766;2023-12-20T03:45:27;37.53;;;22.38;;
80233;SDS011;69712;42.142;24.766;2023-12-20T03:47:53;38.03;;;22.83;;
80233;SDS011;69712;42.142;24.766;2023-12-20T03:50:23;39.58;;;21.55;;
80233;SDS011;69712;42.142;24.766;2023-12-20T03:52:49;37.22;;;21.80;;
80233;SDS011;69712;42.142;24.766;2023-12-20T03:55:15;33.55;;;19.88;;
80233;SDS011;69712;42.142;24.766;2023-12-20T03:57:41;33.30;;;19.38;;
80233;SDS011;69712;42.142;24.766;2023-12-20T04:00:07;37.78;;;20.48;;
80233;SDS011;69712;42.142;24.766;2023-12-20T04:02:36;32.42;;;19.55;;
80233;SDS011;69712;42.142;24.766;2023-12-20T04:05:05;32.30;;;19.70;;
80233;SDS011;69712;42.142;24.766;2023-12-20T04:07:32;32.40;;;18.88;;
80233;SDS011;69712;42.142;24.766;2023-12-20T04:09:58;35.13;;;19.38;;
80233;SDS011;69712;42.142;24.766;2023-12-20T04:12:24;34.95;;;19.33;;
80233;SDS011;69712;42.142;24.766;2023-12-20T04:14:50;35.30;;;19.88;;
80233;SDS011;69712;42.142;24.766;2023-12-20T04:17:15;32.65;;;19.52;;
80233;SDS011;69712;42.142;24.766;2023-12-20T04:19:42;34.60;;;19.48;;
80233;SDS011;69712;42.142;24.766;2023-12-20T04:22:08;37.10;;;20.15;;
80233;SDS011;69712;42.142;24.766;2023-12-20T04:24:34;35.22;;;20.02;;
80233;SDS011;69712;42.142;24.766;2023-12-20T04:26:59;32.40;;;18.73;;
80233;SDS011;69712;42.142;24.766;2023-12-20T04:29:26;33.67;;;19.35;;
80233;SDS011;69712;42.142;24.766;2023-12-20T04:31:51;32.10;;;19.75;;
80233;SDS011;69712;42.142;24.766;2023-12-20T04:34:17;36.55;;;20.67;;
80233;SDS011;69712;42.142;24.766;2023-12-20T04:36:43;36.80;;;19.98;;
80233;SDS011;69712;42.142;24.766;2023-12-20T04:39:10;36.63;;;20.33;;
80233;SDS011;69712;42.142;24.766;2023-12-20T04:41:40;35.83;;;19.98;;
80233;SDS011;69712;42.142;24.766;2023-12-20T04:44:06;31.35;;;18.27;;
80233;SDS011;69712;42.142;24.766;2023-12-20T04:46:31;36.05;;;19.73;;
80233;SDS011;69712;42.142;24.766;2023-12-20T04:48:57;34.97;;;20.10;;
80233;SDS011;69712;42.142;24.766;2023-12-20T04:51:23;33.13;;;19.58;;
80233;SDS011;69712;42.142;24.766;2023-12-20T04:53:49;35.08;;;19.63;;
80233;SDS011;69712;42.142;24.766;2023-12-20T04:56:15;31.65;;;18.55;;
80233;SDS011;69712;42.142;24.766;2023-12-20T04:58:42;36.85;;;19.30;;
80233;SDS011;69712;42.142;24.766;2023-12-20T05:01:10;35.15;;;20.02;;
80233;SDS011;69712;42.142;24.766;2023-12-20T05:03:37;30.98;;;19.85;;
80233;SDS011;69712;42.142;24.766;2023-12-20T05:06:03;42.25;;;22.90;;
80233;SDS011;69712;42.142;24.766;2023-12-20T05:08:28;35.35;;;19.95;;
80233;SDS011;69712;42.142;24.766;2023-12-20T05:10:54;31.75;;;18.80;;
80233;SDS011;69712;42.142;24.766;2023-12-20T05:13:21;32.08;;;19.20;;
80233;SDS011;69712;42.142;24.766;2023-12-20T05:15:46;36.42;;;20.65;;
80233;SDS011;69712;42.142;24.766;2023-12-20T05:18:13;40.22;;;22.63;;
80233;SDS011;69712;42.142;24.766;2023-12-20T05:20:39;36.03;;;21.50;;
80233;SDS011;69712;42.142;24.766;2023-12-20T05:23:05;39.22;;;22.05;;
80233;SDS011;69712;42.142;24.766;2023-12-20T05:25:31;34.78;;;21.85;;
80233;SDS011;69712;42.142;24.766;2023-12-20T05:27:57;39.38;;;23.58;;
80233;SDS011;69712;42.142;24.766;2023-12-20T05:30:23;41.08;;;23.42;;
80233;SDS011;69712;42.142;24.766;2023-12-20T05:32:49;42.17;;;25.85;;
80233;SDS011;69712;42.142;24.766;2023-12-20T05:35:15;41.20;;;24.88;;
80233;SDS011;69712;42.142;24.766;2023-12-20T05:37:41;41.58;;;24.05;;
80233;SDS011;69712;42.142;24.766;2023-12-20T05:40:07;39.92;;;25.20;;
80233;SDS011;69712;42.142;24.766;2023-12-20T05:42:36;49.35;;;27.15;;
80233;SDS011;69712;42.142;24.766;2023-12-20T05:45:03;42.33;;;25.90;;
80233;SDS011;69712;42.142;24.766;2023-12-20T05:47:30;42.95;;;26.50;;
80233;SDS011;69712;42.142;24.766;2023-12-20T05:49:56;44.05;;;25.17;;
80233;SDS011;69712;42.142;24.766;2023-12-20T05:52:21;44.28;;;26.60;;
80233;SDS011;69712;42.142;24.766;2023-12-20T05:54:47;40.50;;;26.25;;
80233;SDS011;69712;42.142;24.766;2023-12-20T05:57:13;42.70;;;25.25;;
80233;SDS011;69712;42.142;24.766;2023-12-20T05:59:39;41.80;;;25.13;;
80233;SDS011;69712;42.142;24.766;2023-12-20T06:02:05;42.03;;;23.90;;
80233;SDS011;69712;42.142;24.766;2023-12-20T06:04:31;41.08;;;26.35;;
80233;SDS011;69712;42.142;24.766;2023-12-20T06:06:57;50.03;;;30.67;;
80233;SDS011;69712;42.142;24.766;2023-12-20T06:12:08;48.55;;;29.02;;
80233;SDS011;69712;42.142;24.766;2023-12-20T06:14:35;46.40;;;29.58;;
80233;SDS011;69712;42.142;24.766;2023-12-20T06:17:01;50.17;;;29.73;;
80233;SDS011;69712;42.142;24.766;2023-12-20T06:19:27;55.20;;;31.92;;
80233;SDS011;69712;42.142;24.766;2023-12-20T06:21:53;48.97;;;30.30;;
80233;SDS011;69712;42.142;24.766;2023-12-20T06:24:19;51.08;;;31.25;;
80233;SDS011;69712;42.142;24.766;2023-12-20T06:26:45;57.17;;;36.22;;
80233;SDS011;69712;42.142;24.766;2023-12-20T06:29:11;62.63;;;42.70;;
80233;SDS011;69712;42.142;24.766;2023-12-20T06:31:37;55.08;;;34.13;;
80233;SDS011;69712;42.142;24.766;2023-12-20T06:34:03;50.50;;;32.28;;
80233;SDS011;69712;42.142;24.766;2023-12-20T06:36:29;47.97;;;29.98;;
80233;SDS011;69712;42.142;24.766;2023-12-20T06:38:55;42.42;;;25.30;;
80233;SDS011;69712;42.142;24.766;2023-12-20T06:41:21;40.50;;;24.00;;
80233;SDS011;69712;42.142;24.766;2023-12-20T06:43:49;40.42;;;23.65;;
80233;SDS011;69712;42.142;24.766;2023-12-20T06:46:15;37.38;;;23.45;;
80233;SDS011;69712;42.142;24.766;2023-12-20T06:48:41;37.55;;;21.80;;
80233;SDS011;69712;42.142;24.766;2023-12-20T06:51:11;33.03;;;21.45;;
80233;SDS011;69712;42.142;24.766;2023-12-20T06:53:40;35.88;;;21.13;;
80233;SDS011;69712;42.142;24.766;2023-12-20T06:56:06;31.42;;;19.60;;
80233;SDS011;69712;42.142;24.766;2023-12-20T06:58:32;29.13;;;17.67;;
80233;SDS011;69712;42.142;24.766;2023-12-20T07:00:58;32.95;;;18.05;;
80233;SDS011;69712;42.142;24.766;2023-12-20T07:03:24;28.75;;;17.55;;
80233;SDS011;69712;42.142;24.766;2023-12-20T07:05:49;28.08;;;18.00;;
80233;SDS011;69712;42.142;24.766;2023-12-20T07:08:15;25.42;;;15.90;;
80233;SDS011;69712;42.142;24.766;2023-12-20T07:10:41;25.17;;;16.33;;
80233;SDS011;69712;42.142;24.766;2023-12-20T07:13:07;24.70;;;15.90;;
80233;SDS011;69712;42.142;24.766;2023-12-20T07:15:33;28.50;;;16.67;;
80233;SDS011;69712;42.142;24.766;2023-12-20T07:17:59;31.77;;;17.13;;
80233;SDS011;69712;42.142;24.766;2023-12-20T07:20:25;29.77;;;18.40;;
80233;SDS011;69712;42.142;24.766;2023-12-20T07:22:51;30.08;;;17.20;;
80233;SDS011;69712;42.142;24.766;2023-12-20T07:25:17;29.00;;;17.67;;
80233;SDS011;69712;42.142;24.766;2023-12-20T07:27:43;28.55;;;18.10;;
80233;SDS011;69712;42.142;24.766;2023-12-20T07:30:09;28.65;;;18.40;;
80233;SDS011;69712;42.142;24.766;2023-12-20T07:32:35;26.40;;;16.65;;
80233;SDS011;69712;42.142;24.766;2023-12-20T07:35:01;26.10;;;17.02;;
80233;SDS011;69712;42.142;24.766;2023-12-20T07:37:28;23.45;;;15.63;;
80233;SDS011;69712;42.142;24.766;2023-12-20T07:39:53;17.10;;;12.82;;
80233;SDS011;69712;42.142;24.766;2023-12-20T07:42:19;20.15;;;13.07;;
80233;SDS011;69712;42.142;24.766;2023-12-20T07:44:47;20.35;;;13.20;;
80233;SDS011;69712;42.142;24.766;2023-12-20T07:47:13;20.90;;;13.40;;
80233;SDS011;69712;42.142;24.766;2023-12-20T07:49:42;20.58;;;14.45;;
80233;SDS011;69712;42.142;24.766;2023-12-20T07:52:07;23.85;;;14.23;;
80233;SDS011;69712;42.142;24.766;2023-12-20T07:54:33;24.17;;;15.85;;
80233;SDS011;69712;42.142;24.766;2023-12-20T07:56:59;24.23;;;14.77;;
80233;SDS011;69712;42.142;24.766;2023-12-20T07:59:25;19.40;;;12.52;;
80233;SDS011;69712;42.142;24.766;2023-12-20T08:01:51;19.48;;;12.93;;
80233;SDS011;69712;42.142;24.766;2023-12-20T08:04:17;17.27;;;12.70;;
80233;SDS011;69712;42.142;24.766;2023-12-20T08:06:42;16.10;;;12.38;;
80233;SDS011;69712;42.142;24.766;2023-12-20T08:09:08;19.98;;;13.10;;
80233;SDS011;69712;42.142;24.766;2023-12-20T08:11:35;17.00;;;12.77;;
80233;SDS011;69712;42.142;24.766;2023-12-20T08:14:01;20.83;;;14.70;;
80233;SDS011;69712;42.142;24.766;2023-12-20T08:16:27;15.98;;;13.25;;
80233;SDS011;69712;42.142;24.766;2023-12-20T08:18:52;21.38;;;14.25;;
80233;SDS011;69712;42.142;24.766;2023-12-20T08:21:18;18.83;;;14.05;;
80233;SDS011;69712;42.142;24.766;2023-12-20T08:23:45;20.25;;;13.75;;
80233;SDS011;69712;42.142;24.766;2023-12-20T08:26:12;19.92;;;15.43;;
80233;SDS011;69712;42.142;24.766;2023-12-20T08:28:38;21.77;;;15.07;;
80233;SDS011;69712;42.142;24.766;2023-12-20T08:31:04;19.65;;;15.10;;
80233;SDS011;69712;42.142;24.766;2023-12-20T08:33:29;18.63;;;14.52;;
80233;SDS011;69712;42.142;24.766;2023-12-20T08:35:55;19.80;;;14.48;;
80233;SDS011;69712;42.142;24.766;2023-12-20T08:38:21;20.02;;;15.25;;
80233;SDS011;69712;42.142;24.766;2023-12-20T08:40:47;21.27;;;16.17;;
80233;SDS011;69712;42.142;24.766;2023-12-20T08:43:13;20.23;;;15.38;;
80233;SDS011;69712;42.142;24.766;2023-12-20T08:45:39;22.17;;;16.20;;
80233;SDS011;69712;42.142;24.766;2023-12-20T08:48:05;20.40;;;15.52;;
80233;SDS011;69712;42.142;24.766;2023-12-20T08:50:31;19.92;;;15.73;;
80233;SDS011;69712;42.142;24.766;2023-12-20T08:52:57;20.73;;;15.05;;
80233;SDS011;69712;42.142;24.766;2023-12-20T08:55:23;20.58;;;15.05;;
80233;SDS011;69712;42.142;24.766;2023-12-20T08:57:48;22.70;;;16.95;;
80233;SDS011;69712;42.142;24.766;2023-12-20T09:00:15;26.35;;;17.27;;
80233;SDS011;69712;42.142;24.766;2023-12-20T09:02:41;25.83;;;18.35;;
80233;SDS011;69712;42.142;24.766;2023-12-20T09:05:07;20.95;;;15.98;;
80233;SDS011;69712;42.142;24.766;2023-12-20T09:07:33;22.05;;;15.65;;
80233;SDS011;69712;42.142;24.766;2023-12-20T09:09:59;23.02;;;16.77;;
80233;SDS011;69712;42.142;24.766;2023-12-20T09:12:25;24.67;;;16.23;;
80233;SDS011;69712;42.142;24.766;2023-12-20T09:14:51;26.75;;;17.33;;
80233;SDS011;69712;42.142;24.766;2023-12-20T09:17:17;25.95;;;17.15;;
80233;SDS011;69712;42.142;24.766;2023-12-20T09:19:44;22.08;;;15.48;;
80233;SDS011;69712;42.142;24.766;2023-12-20T09:22:10;21.17;;;15.18;;
80233;SDS011;69712;42.142;24.766;2023-12-20T09:24:48;20.60;;;16.08;;
80233;SDS011;69712;42.142;24.766;2023-12-20T09:27:13;22.70;;;16.45;;
80233;SDS011;69712;42.142;24.766;2023-12-20T09:29:39;23.90;;;19.08;;
80233;SDS011;69712;42.142;24.766;2023-12-20T09:32:05;23.50;;;16.75;;
80233;SDS011;69712;42.142;24.766;2023-12-20T09:34:31;24.92;;;16.48;;
80233;SDS011;69712;42.142;24.766;2023-12-20T09:36:57;21.52;;;16.17;;
80233;SDS011;69712;42.142;24.766;2023-12-20T09:39:22;19.40;;;15.73;;
80233;SDS011;69712;42.142;24.766;2023-12-20T09:42:02;17.88;;;14.30;;
80233;SDS011;69712;42.142;24.766;2023-12-20T09:44:29;21.45;;;14.65;;
80233;SDS011;69712;42.142;24.766;2023-12-20T09:46:56;19.75;;;15.23;;
80233;SDS011;69712;42.142;24.766;2023-12-20T09:49:22;21.65;;;14.77;;
80233;SDS011;69712;42.142;24.766;2023-12-20T09:51:51;18.50;;;15.63;;
80233;SDS011;69712;42.142;24.766;2023-12-20T09:54:19;22.45;;;15.93;;
80233;SDS011;69712;42.142;24.766;2023-12-20T09:56:46;24.50;;;16.23;;
80233;SDS011;69712;42.142;24.766;2023-12-20T09:59:12;20.83;;;15.57;;
80233;SDS011;69712;42.142;24.766;2023-12-20T10:01:42;22.67;;;15.00;;
80233;SDS011;69712;42.142;24.766;2023-12-20T10:04:09;21.52;;;15.68;;
80233;SDS011;69712;42.142;24.766;2023-12-20T10:06:41;21.35;;;16.25;;
80233;SDS011;69712;42.142;24.766;2023-12-20T10:09:08;22.55;;;16.02;;
80233;SDS011;69712;42.142;24.766;2023-12-20T10:11:37;20.33;;;15.57;;
80233;SDS011;69712;42.142;24.766;2023-12-20T10:14:04;19.70;;;15.00;;
80233;SDS011;69712;42.142;24.766;2023-12-20T10:16:31;18.95;;;14.32;;
80233;SDS011;69712;42.142;24.766;2023-12-20T10:18:58;19.45;;;14.40;;
80233;SDS011;69712;42.142;24.766;2023-12-20T10:21:24;20.23;;;14.50;;
80233;SDS011;69712;42.142;24.766;2023-12-20T10:23:56;19.25;;;14.18;;
80233;SDS011;69712;42.142;24.766;2023-12-20T10:26:24;24.50;;;14.98;;
80233;SDS011;69712;42.142;24.766;2023-12-20T10:28:52;17.08;;;13.68;;
80233;SDS011;69712;42.142;24.766;2023-12-20T10:34:00;16.92;;;13.13;;
80233;SDS011;69712;42.142;24.766;2023-12-20T10:36:27;19.65;;;13.25;;
80233;SDS011;69712;42.142;24.766;2023-12-20T10:38:55;20.88;;;13.50;;
80233;SDS011;69712;42.142;24.766;2023-12-20T10:41:31;17.27;;;12.60;;
80233;SDS011;69712;42.142;24.766;2023-12-20T10:44:01;19.23;;;13.57;;
80233;SDS011;69712;42.142;24.766;2023-12-20T10:46:29;20.40;;;12.50;;
80233;SDS011;69712;42.142;24.766;2023-12-20T10:48:57;21.23;;;12.73;;
80233;SDS011;69712;42.142;24.766;2023-12-20T10:51:23;19.58;;;12.98;;
80233;SDS011;69712;42.142;24.766;2023-12-20T10:53:55;20.33;;;13.68;;
80233;SDS011;69712;42.142;24.766;2023-12-20T10:56:22;19.60;;;13.77;;
80233;SDS011;69712;42.142;24.766;2023-12-20T10:58:51;25.58;;;14.82;;
80233;SDS011;69712;42.142;24.766;2023-12-20T11:01:18;19.90;;;13.70;;
80233;SDS011;69712;42.142;24.766;2023-12-20T11:03:50;23.95;;;13.70;;
80233;SDS011;69712;42.142;24.766;2023-12-20T11:09:13;18.73;;;13.80;;
80233;SDS011;69712;42.142;24.766;2023-12-20T11:14:39;19.60;;;13.25;;
80233;SDS011;69712;42.142;24.766;2023-12-20T11:17:14;18.48;;;12.65;;
80233;SDS011;69712;42.142;24.766;2023-12-20T11:20:03;16.73;;;12.10;;
80233;SDS011;69712;42.142;24.766;2023-12-20T11:22:30;22.50;;;13.18;;
80233;SDS011;69712;42.142;24.766;2023-12-20T11:25:03;21.80;;;13.32;;
80233;SDS011;69712;42.142;24.766;2023-12-20T11:27:34;20.70;;;13.88;;
80233;SDS011;69712;42.142;24.766;2023-12-20T11:30:02;22.20;;;14.00;;
80233;SDS011;69712;42.142;24.766;2023-12-20T11:32:32;23.23;;;14.02;;
80233;SDS011;69712;42.142;24.766;2023-12-20T11:35:00;20.30;;;14.15;;
80233;SDS011;69712;42.142;24.766;2023-12-20T11:37:35;25.23;;;15.63;;
80233;SDS011;69712;42.142;24.766;2023-12-20T11:40:06;23.70;;;15.93;;
80233;SDS011;69712;42.142;24.766;2023-12-20T11:42:49;24.83;;;16.00;;
80233;SDS011;69712;42.142;24.766;2023-12-20T11:45:21;25.83;;;15.60;;
80233;SDS011;69712;42.142;24.766;2023-12-20T11:52:59;30.35;;;16.58;;
80233;SDS011;69712;42.142;24.766;2023-12-20T11:55:25;33.88;;;17.95;;
80233;SDS011;69712;42.142;24.766;2023-12-20T11:57:51;31.80;;;18.50;;
80233;SDS011;69712;42.142;24.766;2023-12-20T12:00:17;29.92;;;18.73;;
80233;SDS011;69712;42.142;24.766;2023-12-20T12:02:55;34.25;;;20.15;;
80233;SDS011;69712;42.142;24.766;2023-12-20T12:05:24;34.38;;;20.67;;
80233;SDS011;69712;42.142;24.766;2023-12-20T12:07:51;35.78;;;22.55;;
80233;SDS011;69712;42.142;24.766;2023-12-20T12:10:16;34.38;;;22.52;;
80233;SDS011;69712;42.142;24.766;2023-12-20T12:12:42;38.88;;;23.58;;
80233;SDS011;69712;42.142;24.766;2023-12-20T12:15:08;37.67;;;22.92;;
80233;SDS011;69712;42.142;24.766;2023-12-20T12:17:34;35.47;;;24.23;;
80233;SDS011;69712;42.142;24.766;2023-12-20T12:20:03;42.60;;;26.17;;
80233;SDS011;69712;42.142;24.766;2023-12-20T12:22:30;41.72;;;26.70;;
80233;SDS011;69712;42.142;24.766;2023-12-20T12:24:58;43.10;;;27.25;;
80233;SDS011;69712;42.142;24.766;2023-12-20T12:27:26;43.10;;;27.55;;
80233;SDS011;69712;42.142;24.766;2023-12-20T12:30:02;45.63;;;26.67;;
80233;SDS011;69712;42.142;24.766;2023-12-20T12:32:29;43.75;;;26.40;;
80233;SDS011;69712;42.142;24.766;2023-12-20T12:34:55;41.55;;;27.45;;
80233;SDS011;69712;42.142;24.766;2023-12-20T12:37:22;40.17;;;26.85;;
80233;SDS011;69712;42.142;24.766;2023-12-20T12:39:49;43.72;;;26.38;;
80233;SDS011;69712;42.142;24.766;2023-12-20T12:42:15;44.22;;;26.35;;
80233;SDS011;69712;42.142;24.766;2023-12-20T12:44:41;38.33;;;25.27;;
80233;SDS011;69712;42.142;24.766;2023-12-20T12:47:06;42.55;;;26.08;;
80233;SDS011;69712;42.142;24.766;2023-12-20T12:49:33;44.25;;;26.33;;
80233;SDS011;69712;42.142;24.766;2023-12-20T12:51:58;43.42;;;25.27;;
80233;SDS011;69712;42.142;24.766;2023-12-20T12:54:25;39.80;;;25.30;;
80233;SDS011;69712;42.142;24.766;2023-12-20T12:56:51;38.72;;;24.83;;
80233;SDS011;69712;42.142;24.766;2023-12-20T12:59:18;41.10;;;26.13;;
80233;SDS011;69712;42.142;24.766;2023-12-20T13:01:44;42.65;;;23.05;;
80233;SDS011;69712;42.142;24.766;2023-12-20T13:04:10;36.90;;;22.40;;
80233;SDS011;69712;42.142;24.766;2023-12-20T13:06:37;35.65;;;22.45;;
80233;SDS011;69712;42.142;24.766;2023-12-20T13:09:03;37.80;;;22.80;;
80233;SDS011;69712;42.142;24.766;2023-12-20T13:11:29;38.50;;;23.88;;
80233;SDS011;69712;42.142;24.766;2023-12-20T13:13:56;35.50;;;22.70;;
80233;SDS011;69712;42.142;24.766;2023-12-20T13:16:25;39.35;;;22.80;;
80233;SDS011;69712;42.142;24.766;2023-12-20T13:18:51;37.13;;;22.70;;
80233;SDS011;69712;42.142;24.766;2023-12-20T13:21:17;33.60;;;21.42;;
80233;SDS011;69712;42.142;24.766;2023-12-20T13:23:43;35.20;;;21.35;;
80233;SDS011;69712;42.142;24.766;2023-12-20T13:26:09;42.38;;;24.77;;
80233;SDS011;69712;42.142;24.766;2023-12-20T13:28:34;37.05;;;21.20;;
80233;SDS011;69712;42.142;24.766;2023-12-20T13:31:00;45.72;;;23.05;;
80233;SDS011;69712;42.142;24.766;2023-12-20T13:33:26;33.25;;;21.92;;
80233;SDS011;69712;42.142;24.766;2023-12-20T13:35:52;39.13;;;22.95;;
80233;SDS011;69712;42.142;24.766;2023-12-20T13:38:18;42.22;;;22.38;;
80233;SDS011;69712;42.142;24.766;2023-12-20T13:40:44;38.70;;;21.95;;
80233;SDS011;69712;42.142;24.766;2023-12-20T13:43:09;38.83;;;23.70;;
80233;SDS011;69712;42.142;24.766;2023-12-20T13:45:38;42.03;;;22.98;;
80233;SDS011;69712;42.142;24.766;2023-12-20T13:48:04;41.53;;;23.70;;
80233;SDS011;69712;42.142;24.766;2023-12-20T13:50:30;38.42;;;23.17;;
80233;SDS011;69712;42.142;24.766;2023-12-20T13:52:56;37.67;;;24.15;;
80233;SDS011;69712;42.142;24.766;2023-12-20T13:55:22;39.17;;;23.88;;
80233;SDS011;69712;42.142;24.766;2023-12-20T13:57:50;40.63;;;24.23;;
80233;SDS011;69712;42.142;24.766;2023-12-20T14:00:16;44.97;;;26.88;;
80233;SDS011;69712;42.142;24.766;2023-12-20T14:02:42;54.17;;;28.77;;
80233;SDS011;69712;42.142;24.766;2023-12-20T14:05:08;50.42;;;26.60;;
80233;SDS011;69712;42.142;24.766;2023-12-20T14:07:35;48.33;;;27.40;;
80233;SDS011;69712;42.142;24.766;2023-12-20T14:10:01;48.30;;;27.52;;
80233;SDS011;69712;42.142;24.766;2023-12-20T14:12:27;45.47;;;26.20;;
80233;SDS011;69712;42.142;24.766;2023-12-20T14:14:53;42.67;;;24.45;;
80233;SDS011;69712;42.142;24.766;2023-12-20T14:17:21;39.53;;;24.20;;
80233;SDS011;69712;42.142;24.766;2023-12-20T14:19:47;43.75;;;25.63;;
80233;SDS011;69712;42.142;24.766;2023-12-20T14:22:13;47.17;;;25.50;;